sensor_id;sensor_type;location;lat;lon;timestamp;pressure;altitude;pressure_sealevel;temperature;humidity
11672;BME280;5892;43.412;24.612;2022-10-16T00:01:51;100806.31;;;8.34;100.00
11672;BME280;5892;43.412;24.612;2022-10-16T00:04:18;100812.88;;;8.28;100.00
11672;BME280;5892;43.412;24.612;2022-10-16T00:06:44;100812.91;;;8.23;100.00
11672;BME280;5892;43.412;24.612;2022-10-16T00:09:11;100810.97;;;8.23;100.00
11672;BME280;5892;43.412;24.612;2022-10-16T00:11:39;100782.97;;;8.07;100.00
11672;BME280;5892;43.412;24.612;2022-10-16T00:14:08;100813.19;;;8.21;100.00
11672;BME280;5892;43.412;24.612;2022-10-16T00:16:37;100814.06;;;8.12;100.00
11672;BME280;5892;43.412;24.612;2022-10-16T00:19:04;100808.59;;;8.12;100.00
11672;BME280;5892;43.412;24.612;2022-10-16T00:21:33;100803.97;;;8.07;100.00
11672;BME280;5892;43.412;24.612;2022-10-16T00:24:01;100817.31;;;8.14;100.00
11672;BME280;5892;43.412;24.612;2022-10-16T00:26:30;100812.75;;;8.04;100.00
11672;BME280;5892;43.412;24.612;2022-10-16T00:28:58;100822.28;;;8.06;100.00
11672;BME280;5892;43.412;24.612;2022-10-16T00:31:25;100821.19;;;8.07;100.00
11672;BME280;5892;43.412;24.612;2022-10-16T00:33:54;100833.19;;;8.06;100.00
11672;BME280;5892;43.412;24.612;2022-10-16T00:36:23;100817.97;;;8.00;100.00
11672;BME280;5892;43.412;24.612;2022-10-16T00:38:51;100827.25;;;7.99;100.00
11672;BME280;5892;43.412;24.612;2022-10-16T00:41:20;100825.34;;;7.95;100.00
11672;BME280;5892;43.412;24.612;2022-10-16T00:43:49;100828.34;;;7.98;100.00
11672;BME280;5892;43.412;24.612;2022-10-16T00:46:19;100829.41;;;7.97;100.00
11672;BME280;5892;43.412;24.612;2022-10-16T00:48:50;100821.81;;;7.94;100.00
11672;BME280;5892;43.412;24.612;2022-10-16T00:51:24;100826.47;;;7.89;100.00
11672;BME280;5892;43.412;24.612;2022-10-16T00:53:52;100823.75;;;7.89;100.00
11672;BME280;5892;43.412;24.612;2022-10-16T00:56:19;100822.97;;;7.78;100.00
11672;BME280;5892;43.412;24.612;2022-10-16T00:58:46;100805.56;;;7.69;100.00
11672;BME280;5892;43.412;24.612;2022-10-16T01:01:13;100815.63;;;7.74;100.00
11672;BME280;5892;43.412;24.612;2022-10-16T01:03:40;100830.03;;;7.84;100.00
11672;BME280;5892;43.412;24.612;2022-10-16T01:06:23;100828.44;;;7.73;100.00
11672;BME280;5892;43.412;24.612;2022-10-16T01:09:02;100834.97;;;7.77;100.00
11672;BME280;5892;43.412;24.612;2022-10-16T01:11:35;100837.47;;;7.69;100.00
11672;BME280;5892;43.412;24.612;2022-10-16T01:14:11;100833.94;;;7.63;100.00
11672;BME280;5892;43.412;24.612;2022-10-16T01:16:43;100827.13;;;7.60;100.00
11672;BME280;5892;43.412;24.612;2022-10-16T01:19:16;100838.28;;;7.59;100.00
11672;BME280;5892;43.412;24.612;2022-10-16T01:21:50;100833.38;;;7.61;100.00
11672;BME280;5892;43.412;24.612;2022-10-16T01:24:28;100831.75;;;7.60;100.00
11672;BME280;5892;43.412;24.612;2022-10-16T01:27:07;100822.22;;;7.57;100.00
11672;BME280;5892;43.412;24.612;2022-10-16T01:29:37;100829.06;;;7.50;100.00
11672;BME280;5892;43.412;24.612;2022-10-16T01:32:10;100832.63;;;7.45;100.00
11672;BME280;5892;43.412;24.612;2022-10-16T01:34:44;100828.25;;;7.49;100.00
11672;BME280;5892;43.412;24.612;2022-10-16T01:37:16;100842.69;;;7.55;100.00
11672;BME280;5892;43.412;24.612;2022-10-16T01:39:47;100838.91;;;7.46;100.00
11672;BME280;5892;43.412;24.612;2022-10-16T01:42:21;100839.97;;;7.45;100.00
11672;BME280;5892;43.412;24.612;2022-10-16T01:44:51;100849.25;;;7.44;100.00
11672;BME280;5892;43.412;24.612;2022-10-16T01:47:22;100844.63;;;7.39;100.00
11672;BME280;5892;43.412;24.612;2022-10-16T01:49:51;100859.09;;;7.30;100.00
11672;BME280;5892;43.412;24.612;2022-10-16T01:52:21;100813.88;;;7.08;100.00
11672;BME280;5892;43.412;24.612;2022-10-16T01:54:51;100852.56;;;7.31;100.00
11672;BME280;5892;43.412;24.612;2022-10-16T01:57:21;100838.69;;;7.22;100.00
11672;BME280;5892;43.412;24.612;2022-10-16T01:59:54;100848.75;;;7.32;100.00
11672;BME280;5892;43.412;24.612;2022-10-16T02:02:26;100845.22;;;7.31;100.00
11672;BME280;5892;43.412;24.612;2022-10-16T02:04:58;100849.59;;;7.27;100.00
11672;BME280;5892;43.412;24.612;2022-10-16T02:07:26;100854.47;;;7.25;100.00
11672;BME280;5892;43.412;24.612;2022-10-16T02:09:55;100860.22;;;7.18;100.00
11672;BME280;5892;43.412;24.612;2022-10-16T02:12:26;100855.34;;;6.95;100.00
11672;BME280;5892;43.412;24.612;2022-10-16T02:14:56;100877.13;;;7.05;100.00
11672;BME280;5892;43.412;24.612;2022-10-16T02:17:26;100880.94;;;7.04;100.00
11672;BME280;5892;43.412;24.612;2022-10-16T02:19:58;100875.50;;;7.04;100.00
11672;BME280;5892;43.412;24.612;2022-10-16T02:22:28;100877.66;;;7.02;100.00
11672;BME280;5892;43.412;24.612;2022-10-16T02:24:59;100874.94;;;6.97;100.00
11672;BME280;5892;43.412;24.612;2022-10-16T02:27:38;100789.69;;;6.46;100.00
11672;BME280;5892;43.412;24.612;2022-10-16T02:30:15;100887.47;;;7.03;100.00
11672;BME280;5892;43.412;24.612;2022-10-16T02:32:48;100882.03;;;7.03;100.00
11672;BME280;5892;43.412;24.612;2022-10-16T02:35:18;100888.84;;;7.06;100.00
11672;BME280;5892;43.412;24.612;2022-10-16T02:37:50;100881.50;;;7.01;100.00
11672;BME280;5892;43.412;24.612;2022-10-16T02:40:17;100890.75;;;7.00;100.00
11672;BME280;5892;43.412;24.612;2022-10-16T02:42:50;100889.94;;;7.05;100.00
11672;BME280;5892;43.412;24.612;2022-10-16T02:45:27;100891.56;;;7.01;100.00
11672;BME280;5892;43.412;24.612;2022-10-16T02:47:57;100889.69;;;7.01;100.00
11672;BME280;5892;43.412;24.612;2022-10-16T02:50:26;100891.28;;;6.97;100.00
11672;BME280;5892;43.412;24.612;2022-10-16T02:53:00;100893.47;;;6.95;100.00
11672;BME280;5892;43.412;24.612;2022-10-16T02:55:27;100894.00;;;6.92;100.00
11672;BME280;5892;43.412;24.612;2022-10-16T02:57:55;100896.47;;;6.94;100.00
11672;BME280;5892;43.412;24.612;2022-10-16T03:00:25;100898.38;;;6.88;100.00
11672;BME280;5892;43.412;24.612;2022-10-16T03:02:52;100900.28;;;6.82;100.00
11672;BME280;5892;43.412;24.612;2022-10-16T03:05:19;100884.47;;;6.69;100.00
11672;BME280;5892;43.412;24.612;2022-10-16T03:07:46;100883.66;;;6.69;100.00
11672;BME280;5892;43.412;24.612;2022-10-16T03:10:16;100901.66;;;6.75;100.00
11672;BME280;5892;43.412;24.612;2022-10-16T03:12:43;100903.81;;;6.73;100.00
11672;BME280;5892;43.412;24.612;2022-10-16T03:15:15;100897.28;;;6.64;100.00
11672;BME280;5892;43.412;24.612;2022-10-16T03:17:41;100896.72;;;6.62;100.00
11672;BME280;5892;43.412;24.612;2022-10-16T03:20:10;100897.25;;;6.54;100.00
11672;BME280;5892;43.412;24.612;2022-10-16T03:22:37;100895.59;;;6.53;100.00
11672;BME280;5892;43.412;24.612;2022-10-16T03:25:07;100897.25;;;6.54;100.00
11672;BME280;5892;43.412;24.612;2022-10-16T03:27:35;100907.03;;;6.50;100.00
11672;BME280;5892;43.412;24.612;2022-10-16T03:30:11;100898.31;;;6.37;100.00
11672;BME280;5892;43.412;24.612;2022-10-16T03:32:45;100903.44;;;6.34;100.00
11672;BME280;5892;43.412;24.612;2022-10-16T03:35:14;100904.56;;;6.38;100.00
11672;BME280;5892;43.412;24.612;2022-10-16T03:37:46;100911.38;;;6.41;100.00
11672;BME280;5892;43.412;24.612;2022-10-16T03:40:13;100913.25;;;6.35;100.00
11672;BME280;5892;43.412;24.612;2022-10-16T03:42:44;100904.78;;;6.21;100.00
11672;BME280;5892;43.412;24.612;2022-10-16T03:45:11;100911.34;;;6.35;100.00
11672;BME280;5892;43.412;24.612;2022-10-16T03:47:42;100912.19;;;6.41;100.00
11672;BME280;5892;43.412;24.612;2022-10-16T03:50:21;100925.50;;;6.27;100.00
11672;BME280;5892;43.412;24.612;2022-10-16T03:52:53;100921.09;;;6.21;100.00
11672;BME280;5892;43.412;24.612;2022-10-16T03:55:30;100928.19;;;6.22;100.00
11672;BME280;5892;43.412;24.612;2022-10-16T03:58:03;100924.38;;;6.23;100.00
11672;BME280;5892;43.412;24.612;2022-10-16T04:00:40;100927.34;;;6.17;100.00
11672;BME280;5892;43.412;24.612;2022-10-16T04:03:25;100927.63;;;6.20;100.00
11672;BME280;5892;43.412;24.612;2022-10-16T04:06:03;100936.91;;;6.29;100.00
11672;BME280;5892;43.412;24.612;2022-10-16T04:08:34;100933.38;;;6.29;100.00
11672;BME280;5892;43.412;24.612;2022-10-16T04:11:02;100934.69;;;6.16;100.00
11672;BME280;5892;43.412;24.612;2022-10-16T04:13:33;100922.63;;;6.02;100.00
11672;BME280;5892;43.412;24.612;2022-10-16T04:16:05;100928.06;;;5.97;100.00
11672;BME280;5892;43.412;24.612;2022-10-16T04:18:37;100926.13;;;5.87;100.00
11672;BME280;5892;43.412;24.612;2022-10-16T04:21:04;100924.25;;;5.93;100.00
11672;BME280;5892;43.412;24.612;2022-10-16T04:23:36;100918.97;;;5.81;100.00
11672;BME280;5892;43.412;24.612;2022-10-16T04:26:11;100932.44;;;5.98;100.00
11672;BME280;5892;43.412;24.612;2022-10-16T04:28:41;100923.16;;;5.94;100.00
11672;BME280;5892;43.412;24.612;2022-10-16T04:31:08;100924.16;;;5.83;100.00
11672;BME280;5892;43.412;24.612;2022-10-16T04:33:36;100925.81;;;5.84;100.00
11672;BME280;5892;43.412;24.612;2022-10-16T04:36:03;100929.09;;;5.86;100.00
11672;BME280;5892;43.412;24.612;2022-10-16T04:38:30;100930.97;;;5.80;100.00
11672;BME280;5892;43.412;24.612;2022-10-16T04:41:01;100928.75;;;5.77;100.00
11672;BME280;5892;43.412;24.612;2022-10-16T04:43:37;100915.34;;;5.66;100.00
11672;BME280;5892;43.412;24.612;2022-10-16T04:46:05;100932.25;;;5.73;100.00
11672;BME280;5892;43.412;24.612;2022-10-16T04:48:32;100937.72;;;5.78;100.00
11672;BME280;5892;43.412;24.612;2022-10-16T04:51:06;100946.00;;;5.93;100.00
11672;BME280;5892;43.412;24.612;2022-10-16T04:53:33;100931.13;;;6.06;100.00
11672;BME280;5892;43.412;24.612;2022-10-16T04:55:59;100936.56;;;6.11;100.00
11672;BME280;5892;43.412;24.612;2022-10-16T04:58:26;100944.00;;;6.30;100.00
11672;BME280;5892;43.412;24.612;2022-10-16T05:00:56;100952.19;;;6.41;100.00
11672;BME280;5892;43.412;24.612;2022-10-16T05:03:27;100941.06;;;6.47;100.00
11672;BME280;5892;43.412;24.612;2022-10-16T05:05:54;100932.34;;;6.55;100.00
11672;BME280;5892;43.412;24.612;2022-10-16T05:08:27;100961.03;;;6.93;100.00
11672;BME280;5892;43.412;24.612;2022-10-16T05:10:54;100966.78;;;7.12;100.00
11672;BME280;5892;43.412;24.612;2022-10-16T05:13:25;100957.25;;;7.24;100.00
11672;BME280;5892;43.412;24.612;2022-10-16T05:15:52;100972.25;;;7.42;100.00
11672;BME280;5892;43.412;24.612;2022-10-16T05:18:34;100980.69;;;7.61;100.00
11672;BME280;5892;43.412;24.612;2022-10-16T05:21:01;100973.84;;;7.74;100.00
11672;BME280;5892;43.412;24.612;2022-10-16T05:23:36;100976.81;;;7.87;100.00
11672;BME280;5892;43.412;24.612;2022-10-16T05:26:06;100989.06;;;8.05;100.00
11672;BME280;5892;43.412;24.612;2022-10-16T05:28:33;100988.47;;;8.18;100.00
11672;BME280;5892;43.412;24.612;2022-10-16T05:31:04;100978.06;;;8.35;100.00
11672;BME280;5892;43.412;24.612;2022-10-16T05:33:34;100996.00;;;8.57;100.00
11672;BME280;5892;43.412;24.612;2022-10-16T05:36:01;100991.59;;;8.66;99.66
11672;BME280;5892;43.412;24.612;2022-10-16T05:38:28;100988.78;;;8.76;99.05
11672;BME280;5892;43.412;24.612;2022-10-16T05:40:56;101007.00;;;8.90;98.53
11672;BME280;5892;43.412;24.612;2022-10-16T05:43:23;101006.91;;;9.06;97.77
11672;BME280;5892;43.412;24.612;2022-10-16T05:46:01;101014.47;;;9.24;97.51
11672;BME280;5892;43.412;24.612;2022-10-16T05:48:30;100996.66;;;9.31;96.65
11672;BME280;5892;43.412;24.612;2022-10-16T05:51:04;101017.03;;;9.44;95.78
11672;BME280;5892;43.412;24.612;2022-10-16T05:53:33;101017.69;;;9.65;95.96
11672;BME280;5892;43.412;24.612;2022-10-16T05:56:02;101020.63;;;9.73;94.75
11672;BME280;5892;43.412;24.612;2022-10-16T05:58:31;101024.34;;;9.88;94.58
11672;BME280;5892;43.412;24.612;2022-10-16T06:00:59;101030.44;;;10.08;93.73
11672;BME280;5892;43.412;24.612;2022-10-16T06:03:27;101041.59;;;10.12;93.23
11672;BME280;5892;43.412;24.612;2022-10-16T06:05:54;101026.97;;;10.27;92.45
11672;BME280;5892;43.412;24.612;2022-10-16T06:08:28;101033.16;;;10.37;92.29
11672;BME280;5892;43.412;24.612;2022-10-16T06:11:07;101015.03;;;10.41;91.13
11672;BME280;5892;43.412;24.612;2022-10-16T06:13:39;101038.28;;;10.68;91.00
11672;BME280;5892;43.412;24.612;2022-10-16T06:16:15;101037.28;;;10.82;90.16
11672;BME280;5892;43.412;24.612;2022-10-16T06:18:43;101039.81;;;10.97;89.71
11672;BME280;5892;43.412;24.612;2022-10-16T06:21:16;101043.22;;;11.08;88.99
11672;BME280;5892;43.412;24.612;2022-10-16T06:23:43;101048.47;;;11.23;88.69
11672;BME280;5892;43.412;24.612;2022-10-16T06:26:17;101043.06;;;11.37;87.52
11672;BME280;5892;43.412;24.612;2022-10-16T06:28:46;101056.78;;;11.56;86.73
11672;BME280;5892;43.412;24.612;2022-10-16T06:31:14;101044.66;;;11.57;86.06
11672;BME280;5892;43.412;24.612;2022-10-16T06:33:44;101048.22;;;11.76;86.03
11672;BME280;5892;43.412;24.612;2022-10-16T06:36:14;101052.94;;;11.89;85.37
11672;BME280;5892;43.412;24.612;2022-10-16T06:38:46;101026.81;;;11.92;85.16
11672;BME280;5892;43.412;24.612;2022-10-16T06:41:26;101064.31;;;12.28;85.22
11672;BME280;5892;43.412;24.612;2022-10-16T06:43:53;101065.97;;;12.43;84.64
11672;BME280;5892;43.412;24.612;2022-10-16T06:46:24;101071.69;;;12.60;83.47
11672;BME280;5892;43.412;24.612;2022-10-16T06:48:54;101062.91;;;12.72;82.58
11672;BME280;5892;43.412;24.612;2022-10-16T06:51:23;101064.44;;;12.78;82.51
11672;BME280;5892;43.412;24.612;2022-10-16T06:53:57;101064.22;;;12.88;81.53
11672;BME280;5892;43.412;24.612;2022-10-16T06:56:27;101070.91;;;13.09;81.38
11672;BME280;5892;43.412;24.612;2022-10-16T06:58:55;101068.59;;;13.17;81.05
11672;BME280;5892;43.412;24.612;2022-10-16T07:01:23;101090.59;;;13.17;80.59
11672;BME280;5892;43.412;24.612;2022-10-16T07:03:50;101084.25;;;13.30;80.60
11672;BME280;5892;43.412;24.612;2022-10-16T07:06:19;101050.97;;;13.18;79.47
11672;BME280;5892;43.412;24.612;2022-10-16T07:08:47;101086.28;;;13.38;79.32
11672;BME280;5892;43.412;24.612;2022-10-16T07:11:15;101084.03;;;13.62;78.35
11672;BME280;5892;43.412;24.612;2022-10-16T07:13:44;101089.50;;;13.76;77.83
11672;BME280;5892;43.412;24.612;2022-10-16T07:16:13;101093.66;;;13.87;77.93
11672;BME280;5892;43.412;24.612;2022-10-16T07:18:41;101088.66;;;13.97;76.90
11672;BME280;5892;43.412;24.612;2022-10-16T07:21:12;101091.66;;;14.10;76.91
11672;BME280;5892;43.412;24.612;2022-10-16T07:23:40;101078.75;;;14.19;76.10
11672;BME280;5892;43.412;24.612;2022-10-16T07:26:07;101079.78;;;14.23;76.11
11672;BME280;5892;43.412;24.612;2022-10-16T07:28:35;101093.66;;;14.40;76.56
11672;BME280;5892;43.412;24.612;2022-10-16T07:31:06;101080.41;;;14.51;76.03
11672;BME280;5892;43.412;24.612;2022-10-16T07:33:34;101076.75;;;14.72;75.07
11672;BME280;5892;43.412;24.612;2022-10-16T07:36:01;101087.78;;;14.72;74.83
11672;BME280;5892;43.412;24.612;2022-10-16T07:38:28;101090.75;;;14.84;74.39
11672;BME280;5892;43.412;24.612;2022-10-16T07:40:58;101088.47;;;14.87;74.34
11672;BME280;5892;43.412;24.612;2022-10-16T07:43:26;101074.25;;;15.02;74.35
11672;BME280;5892;43.412;24.612;2022-10-16T07:45:53;101074.41;;;15.05;74.11
11672;BME280;5892;43.412;24.612;2022-10-16T07:48:24;101056.38;;;14.99;74.35
11672;BME280;5892;43.412;24.612;2022-10-16T07:50:57;101063.53;;;15.00;74.66
11672;BME280;5892;43.412;24.612;2022-10-16T07:53:23;101087.94;;;15.33;73.69
11672;BME280;5892;43.412;24.612;2022-10-16T07:55:50;101082.75;;;15.48;73.58
11672;BME280;5892;43.412;24.612;2022-10-16T07:58:17;101077.09;;;15.53;73.34
11672;BME280;5892;43.412;24.612;2022-10-16T08:00:44;101077.41;;;15.69;73.26
11672;BME280;5892;43.412;24.612;2022-10-16T08:03:11;101083.91;;;15.73;72.70
11672;BME280;5892;43.412;24.612;2022-10-16T08:05:39;101080.66;;;15.88;72.03
11672;BME280;5892;43.412;24.612;2022-10-16T08:08:06;101087.47;;;15.82;72.01
11672;BME280;5892;43.412;24.612;2022-10-16T08:10:33;101081.78;;;15.87;72.69
11672;BME280;5892;43.412;24.612;2022-10-16T08:13:00;101073.97;;;15.98;72.07
11672;BME280;5892;43.412;24.612;2022-10-16T08:15:27;101100.28;;;16.21;71.76
11672;BME280;5892;43.412;24.612;2022-10-16T08:17:56;101098.78;;;16.24;71.59
11672;BME280;5892;43.412;24.612;2022-10-16T08:20:23;101098.28;;;16.30;71.27
11672;BME280;5892;43.412;24.612;2022-10-16T08:22:51;101091.94;;;16.30;71.71
11672;BME280;5892;43.412;24.612;2022-10-16T08:25:18;101089.13;;;16.47;71.57
11672;BME280;5892;43.412;24.612;2022-10-16T08:27:45;101060.06;;;16.32;69.58
11672;BME280;5892;43.412;24.612;2022-10-16T08:30:12;101089.75;;;16.61;69.29
11672;BME280;5892;43.412;24.612;2022-10-16T08:32:39;101096.22;;;16.74;69.15
11672;BME280;5892;43.412;24.612;2022-10-16T08:35:07;101091.63;;;16.78;69.04
11672;BME280;5892;43.412;24.612;2022-10-16T08:37:34;101096.59;;;16.93;65.89
11672;BME280;5892;43.412;24.612;2022-10-16T08:40:12;101097.13;;;17.16;64.15
11672;BME280;5892;43.412;24.612;2022-10-16T08:42:58;101095.59;;;17.27;62.20
11672;BME280;5892;43.412;24.612;2022-10-16T08:45:57;101083.00;;;17.29;60.46
11672;BME280;5892;43.412;24.612;2022-10-16T08:48:30;101093.88;;;17.55;59.12
11672;BME280;5892;43.412;24.612;2022-10-16T08:51:03;101074.56;;;17.47;55.43
11672;BME280;5892;43.412;24.612;2022-10-16T08:53:36;101075.22;;;17.44;54.27
11672;BME280;5892;43.412;24.612;2022-10-16T08:56:06;101082.88;;;17.47;53.37
11672;BME280;5892;43.412;24.612;2022-10-16T08:58:33;101105.09;;;17.59;50.69
11672;BME280;5892;43.412;24.612;2022-10-16T09:01:02;101108.91;;;17.75;49.76
11672;BME280;5892;43.412;24.612;2022-10-16T09:03:42;101102.81;;;17.82;50.95
11672;BME280;5892;43.412;24.612;2022-10-16T09:09:30;101116.22;;;18.00;49.65
11672;BME280;5892;43.412;24.612;2022-10-16T09:12:09;101117.03;;;17.80;50.23
11672;BME280;5892;43.412;24.612;2022-10-16T09:14:50;101109.78;;;17.88;49.36
11672;BME280;5892;43.412;24.612;2022-10-16T09:17:27;101108.56;;;17.97;49.83
11672;BME280;5892;43.412;24.612;2022-10-16T09:20:04;101109.84;;;18.00;48.94
11672;BME280;5892;43.412;24.612;2022-10-16T09:22:39;101105.13;;;18.12;49.07
11672;BME280;5892;43.412;24.612;2022-10-16T09:25:11;101102.41;;;18.25;47.87
11672;BME280;5892;43.412;24.612;2022-10-16T09:27:42;101109.38;;;18.31;47.23
11672;BME280;5892;43.412;24.612;2022-10-16T09:30:12;101092.47;;;18.24;47.04
11672;BME280;5892;43.412;24.612;2022-10-16T09:32:40;101104.97;;;18.30;46.92
11672;BME280;5892;43.412;24.612;2022-10-16T09:35:13;101106.94;;;18.29;47.46
11672;BME280;5892;43.412;24.612;2022-10-16T09:37:42;101080.56;;;18.23;46.86
11672;BME280;5892;43.412;24.612;2022-10-16T09:40:12;101092.72;;;18.43;46.80
11672;BME280;5892;43.412;24.612;2022-10-16T09:42:41;101093.19;;;18.45;46.85
11672;BME280;5892;43.412;24.612;2022-10-16T09:45:20;101093.69;;;18.47;46.67
11672;BME280;5892;43.412;24.612;2022-10-16T09:47:48;101098.81;;;18.57;46.42
11672;BME280;5892;43.412;24.612;2022-10-16T09:50:22;101099.25;;;18.59;46.77
11672;BME280;5892;43.412;24.612;2022-10-16T09:53:02;101080.56;;;18.23;46.45
11672;BME280;5892;43.412;24.612;2022-10-16T09:55:29;101097.69;;;18.37;46.91
11672;BME280;5892;43.412;24.612;2022-10-16T09:57:57;101095.34;;;18.27;46.62
11672;BME280;5892;43.412;24.612;2022-10-16T10:00:24;101085.50;;;18.17;47.14
11672;BME280;5892;43.412;24.612;2022-10-16T10:02:52;101058.41;;;18.02;47.63
11672;BME280;5892;43.412;24.612;2022-10-16T10:05:22;101079.28;;;18.33;47.65
11672;BME280;5892;43.412;24.612;2022-10-16T10:07:54;101085.13;;;18.52;46.37
11672;BME280;5892;43.412;24.612;2022-10-16T10:10:24;101081.75;;;18.46;46.78
11672;BME280;5892;43.412;24.612;2022-10-16T10:12:51;101081.16;;;18.29;47.22
11672;BME280;5892;43.412;24.612;2022-10-16T10:15:20;101013.34;;;17.93;46.55
11672;BME280;5892;43.412;24.612;2022-10-16T10:17:50;101061.16;;;18.35;46.54
11672;BME280;5892;43.412;24.612;2022-10-16T10:20:25;101066.81;;;18.39;46.74
11672;BME280;5892;43.412;24.612;2022-10-16T10:22:53;101044.72;;;18.42;45.83
11672;BME280;5892;43.412;24.612;2022-10-16T10:25:41;101073.84;;;18.57;45.53
11672;BME280;5892;43.412;24.612;2022-10-16T10:28:23;101052.47;;;18.25;46.05
11672;BME280;5892;43.412;24.612;2022-10-16T10:31:01;101068.69;;;18.47;45.42
11672;BME280;5892;43.412;24.612;2022-10-16T10:33:37;101076.66;;;18.36;45.99
11672;BME280;5892;43.412;24.612;2022-10-16T10:36:14;101060.78;;;18.25;46.65
11672;BME280;5892;43.412;24.612;2022-10-16T10:38:48;101068.56;;;18.43;46.00
11672;BME280;5892;43.412;24.612;2022-10-16T10:41:35;101062.56;;;18.53;46.24
11672;BME280;5892;43.412;24.612;2022-10-16T10:44:12;101057.88;;;18.66;46.09
11672;BME280;5892;43.412;24.612;2022-10-16T10:46:47;101062.84;;;18.73;46.23
11672;BME280;5892;43.412;24.612;2022-10-16T10:49:36;101050.44;;;18.70;45.61
11672;BME280;5892;43.412;24.612;2022-10-16T10:52:22;101057.41;;;18.76;45.69
11672;BME280;5892;43.412;24.612;2022-10-16T10:54:58;101054.38;;;18.69;45.33
11672;BME280;5892;43.412;24.612;2022-10-16T10:57:29;101045.03;;;18.61;45.46
11672;BME280;5892;43.412;24.612;2022-10-16T11:00:10;101018.13;;;18.17;45.57
11672;BME280;5892;43.412;24.612;2022-10-16T11:02:48;101002.06;;;18.10;44.96
11672;BME280;5892;43.412;24.612;2022-10-16T11:05:29;101041.03;;;18.38;45.18
11672;BME280;5892;43.412;24.612;2022-10-16T11:07:59;101039.31;;;18.46;45.26
11672;BME280;5892;43.412;24.612;2022-10-16T11:10:29;101042.09;;;18.46;45.36
11672;BME280;5892;43.412;24.612;2022-10-16T11:13:00;101040.03;;;18.55;45.66
11672;BME280;5892;43.412;24.612;2022-10-16T11:15:35;101027.50;;;18.49;44.90
11672;BME280;5892;43.412;24.612;2022-10-16T11:18:07;101042.13;;;18.58;45.11
11672;BME280;5892;43.412;24.612;2022-10-16T11:20:40;101044.66;;;18.51;45.45
11672;BME280;5892;43.412;24.612;2022-10-16T11:23:15;101003.78;;;18.27;44.97
11672;BME280;5892;43.412;24.612;2022-10-16T11:25:43;101038.31;;;18.63;44.88
11672;BME280;5892;43.412;24.612;2022-10-16T11:28:11;101039.69;;;18.69;45.01
11672;BME280;5892;43.412;24.612;2022-10-16T11:30:43;101024.44;;;18.63;44.46
11672;BME280;5892;43.412;24.612;2022-10-16T11:33:27;101028.25;;;18.70;44.32
11672;BME280;5892;43.412;24.612;2022-10-16T11:36:02;101039.69;;;18.81;44.20
11672;BME280;5892;43.412;24.612;2022-10-16T11:38:33;101044.47;;;18.68;44.21
11672;BME280;5892;43.412;24.612;2022-10-16T11:41:07;101023.34;;;18.43;44.16
11672;BME280;5892;43.412;24.612;2022-10-16T11:43:38;101029.19;;;18.62;44.21
11672;BME280;5892;43.412;24.612;2022-10-16T11:46:11;101034.03;;;18.77;43.74
11672;BME280;5892;43.412;24.612;2022-10-16T11:48:45;101035.41;;;18.83;43.13
11672;BME280;5892;43.412;24.612;2022-10-16T11:51:19;101042.81;;;18.91;42.76
11672;BME280;5892;43.412;24.612;2022-10-16T11:53:57;101023.13;;;18.84;43.04
11672;BME280;5892;43.412;24.612;2022-10-16T11:56:26;101034.81;;;19.02;43.11
11672;BME280;5892;43.412;24.612;2022-10-16T11:58:57;101032.03;;;19.02;42.12
11672;BME280;5892;43.412;24.612;2022-10-16T12:01:31;101018.84;;;18.99;42.02
11672;BME280;5892;43.412;24.612;2022-10-16T12:04:11;101035.28;;;19.04;42.34
11672;BME280;5892;43.412;24.612;2022-10-16T12:06:43;101043.25;;;19.05;42.08
11672;BME280;5892;43.412;24.612;2022-10-16T12:09:15;101003.25;;;18.82;42.10
11672;BME280;5892;43.412;24.612;2022-10-16T12:11:46;101043.94;;;19.02;41.51
11672;BME280;5892;43.412;24.612;2022-10-16T12:14:32;101047.69;;;18.94;41.57
11672;BME280;5892;43.412;24.612;2022-10-16T12:17:02;101051.38;;;18.86;41.49
11672;BME280;5892;43.412;24.612;2022-10-16T12:19:32;101039.59;;;18.77;41.31
11672;BME280;5892;43.412;24.612;2022-10-16T12:22:01;101020.63;;;18.55;41.38
11672;BME280;5892;43.412;24.612;2022-10-16T12:24:34;101031.25;;;18.77;41.88
11672;BME280;5892;43.412;24.612;2022-10-16T12:27:04;101030.22;;;18.82;41.73
11672;BME280;5892;43.412;24.612;2022-10-16T12:29:35;101031.94;;;18.86;40.86
11672;BME280;5892;43.412;24.612;2022-10-16T12:32:04;101029.16;;;18.74;40.12
11672;BME280;5892;43.412;24.612;2022-10-16T12:34:40;101029.06;;;18.71;40.33
11672;BME280;5892;43.412;24.612;2022-10-16T12:37:21;101010.88;;;18.49;40.60
11672;BME280;5892;43.412;24.612;2022-10-16T12:39:51;101044.09;;;18.70;41.25
11672;BME280;5892;43.412;24.612;2022-10-16T12:42:23;100993.03;;;18.38;41.18
11672;BME280;5892;43.412;24.612;2022-10-16T12:44:50;101042.59;;;18.72;41.17
11672;BME280;5892;43.412;24.612;2022-10-16T12:47:36;101039.91;;;18.63;40.98
11672;BME280;5892;43.412;24.612;2022-10-16T12:50:24;101037.28;;;18.55;40.71
11672;BME280;5892;43.412;24.612;2022-10-16T12:52:52;101047.00;;;18.61;40.35
11672;BME280;5892;43.412;24.612;2022-10-16T12:55:21;101014.56;;;18.41;40.36
11672;BME280;5892;43.412;24.612;2022-10-16T13:00:45;101041.19;;;18.54;41.03
11672;BME280;5892;43.412;24.612;2022-10-16T13:03:44;101046.19;;;18.60;39.52
11672;BME280;5892;43.412;24.612;2022-10-16T13:06:23;101042.13;;;18.58;39.37
11672;BME280;5892;43.412;24.612;2022-10-16T13:12:04;101014.00;;;18.47;37.51
11672;BME280;5892;43.412;24.612;2022-10-16T13:14:58;101038.91;;;18.56;37.44
11672;BME280;5892;43.412;24.612;2022-10-16T13:17:35;101015.72;;;18.40;37.90
11672;BME280;5892;43.412;24.612;2022-10-16T13:20:17;101048.63;;;18.62;39.06
11672;BME280;5892;43.412;24.612;2022-10-16T13:23:11;101041.53;;;18.65;40.33